Russell, Kansas
Current Conditions -  °F | °C
As of 2:53 PM on Tuesday 25 Nov 2014 (Local Time) from KRSL Reporting Station
Broken Clouds Broken Clouds  
Wind Chill: 42°   Ceiling: 11000
Heat Index: 49°   Visibility: 10mi
Dew Point: 19°   Wind: 18mph
Humidity: 31%   Direction: 210°SSW
Pressure: 29.96"   Gusts: NA
Location:  38.9°N, 98.86°W
Report Text: KRSL 252053Z AUTO 21016KT 10SM BKN110 09/M07 A2996 RMK AO2 SLP159 T00941072 56039
Loading
Personal Weather Stations






























Interactive Weather Map New forecast layout! Learn more

10-Day Weather Forecast

Advertisements
Track Severe Weather on mobile